Time;durP1;ratioP1;P1;durP2;ratioP2;P2;SDS_P1;SDS_P2;PMS_P1;PMS_P2;Temp;Humidity;BMP_temperature;BMP_pressure;BME280_temperature;BME280_humidity;BME280_pressure;Samples;Min_cycle;Max_cycle;Signal;HPM_P1;HPM_P2
2022/03/23 00:00:16;;;;;;;;;;;21.50;28.60;;;;;;694109;28;1495;-81
2022/03/23 00:00:37;;;;;;;;;;;21.50;28.20;;;;;;693998;28;885;-82
2022/03/23 00:00:58;;;;;;;;;;;21.50;27.80;;;;;;694021;28;853;-81
2022/03/23 00:01:18;;;;;;;;;;;21.50;28.00;;;;;;694143;28;890;-82
2022/03/23 00:01:39;;;;;;;;;;;21.50;27.90;;;;;;690763;28;1440;-81
2022/03/23 00:02:01;;;;;;;;;;;21.50;28.00;;;;;;691318;28;1439;-81
2022/03/23 00:02:25;;;;;;;;;;;21.50;28.10;;;;;;692658;28;1569;-81
2022/03/23 00:02:46;;;;;;;;;;;21.50;28.00;;;;;;694060;28;1270;-81
2022/03/23 00:03:07;;;;;;;;;;;21.50;27.90;;;;;;693870;28;1369;-83
2022/03/23 00:03:27;;;;;;;;;;;21.50;28.70;;;;;;693131;28;1571;-80
2022/03/23 00:03:48;;;;;;;;;;;21.50;28.70;;;;;;693547;28;1459;-80
2022/03/23 00:04:09;;;;;;;;;;;21.50;28.80;;;;;;695010;28;1578;-81
2022/03/23 00:04:31;;;;;;;;;;;21.50;28.20;;;;;;694262;28;1531;-80
2022/03/23 00:04:55;;;;;;;;;;;21.50;28.80;;;;;;694001;28;1252;-80
2022/03/23 00:05:16;;;;;;;;;;;21.50;27.70;;;;;;692632;28;1412;-81
2022/03/23 00:05:44;;;;;;;;;;;21.50;28.00;;;;;;691730;28;1418;-81
2022/03/23 00:06:05;;;;;;;;;;;21.50;27.90;;;;;;693089;28;1296;-80
2022/03/23 00:06:25;;;;;;;;;;;21.50;28.10;;;;;;694078;28;1471;-79
2022/03/23 00:06:46;;;;;;;;;;;21.40;27.80;;;;;;694004;28;1337;-79
2022/03/23 00:07:07;;;;;;;;;;;21.40;28.70;;;;;;693864;28;1300;-78
2022/03/23 00:07:28;;;;;;;;;;;21.50;27.90;;;;;;694103;28;1222;-81
2022/03/23 00:07:49;;;;;;;;;;;21.40;28.40;;;;;;694338;28;897;-80
2022/03/23 00:08:10;;;;;;;;;;;21.40;28.50;;;;;;694245;28;865;-80
2022/03/23 00:08:30;;;;;;;;;;;21.40;27.80;;;;;;694248;28;877;-79
2022/03/23 00:08:51;;;;;;;;;;;21.50;28.60;;;;;;696231;28;1258;-80
2022/03/23 00:09:14;;;;;;;;;;;21.40;28.10;;;;;;694013;28;1490;-80
2022/03/23 00:09:35;;;;;;;;;;;21.40;28.60;;;;;;696521;28;1345;-78
2022/03/23 00:09:55;;;;;;;;;;;21.40;28.20;;;;;;696655;28;1429;-79
2022/03/23 00:10:16;;;;;;;;;;;21.40;29.10;;;;;;696880;28;625;-80
2022/03/23 00:10:37;;;;;;;;;;;21.50;29.50;;;;;;696132;28;787;-79
2022/03/23 00:10:57;;;;;;;;;;;21.50;28.70;;;;;;694045;28;1400;-80
2022/03/23 00:11:18;;;;;;;;;;;21.40;29.20;;;;;;694445;28;573;-79
2022/03/23 00:11:38;;;;;;;;;;;21.40;28.50;;;;;;694165;28;827;-79
2022/03/23 00:11:59;;;;;;;;;;;21.40;29.00;;;;;;690982;28;1315;-80
2022/03/23 00:12:20;;;;;;;;;;;21.40;28.60;;;;;;694148;28;870;-80
2022/03/23 00:12:42;;;;;;;;;;;21.50;28.60;;;;;;693926;28;894;-81
2022/03/23 00:13:03;;;;;;;;;;;21.40;28.70;;;;;;691167;28;1221;-80
2022/03/23 00:13:24;;;;;;;;;;;21.40;28.30;;;;;;691492;28;1271;-78
2022/03/23 00:13:45;;;;;;;;;;;21.50;29.00;;;;;;691849;28;1961;-79
2022/03/23 00:14:06;;;;;;;;;;;21.50;28.50;;;;;;694069;28;736;-78
2022/03/23 00:14:26;;;;;;;;;;;21.50;28.70;;;;;;693866;28;862;-79
2022/03/23 00:14:47;;;;;;;;;;;21.40;28.50;;;;;;694160;28;905;-80
2022/03/23 00:15:08;;;;;;;;;;;21.50;28.00;;;;;;694174;28;857;-81
2022/03/23 00:15:29;;;;;;;;;;;21.50;28.00;;;;;;694105;28;798;-79
2022/03/23 00:15:49;;;;;;;;;;;21.40;28.00;;;;;;694211;28;802;-79
2022/03/23 00:16:10;;;;;;;;;;;21.50;28.40;;;;;;694168;28;943;-79
2022/03/23 00:16:31;;;;;;;;;;;21.50;28.60;;;;;;694169;28;885;-81
2022/03/23 00:16:51;;;;;;;;;;;21.50;28.10;;;;;;691230;28;1534;-78
2022/03/23 00:17:12;;;;;;;;;;;21.30;28.60;;;;;;693101;28;846;-82
2022/03/23 00:17:33;;;;;;;;;;;21.50;28.40;;;;;;693960;28;818;-79
2022/03/23 00:17:57;;;;;;;;;;;21.50;27.90;;;;;;693952;28;1251;-79
2022/03/23 00:18:18;;;;;;;;;;;21.50;28.00;;;;;;694069;28;826;-80
2022/03/23 00:18:38;;;;;;;;;;;21.50;28.50;;;;;;693196;28;937;-80
2022/03/23 00:18:59;;;;;;;;;;;21.50;28.40;;;;;;691456;28;494;-79
2022/03/23 00:19:19;;;;;;;;;;;21.50;28.50;;;;;;691515;28;842;-79
2022/03/23 00:19:40;;;;;;;;;;;21.50;28.50;;;;;;691555;28;823;-78
2022/03/23 00:20:00;;;;;;;;;;;21.50;28.00;;;;;;693006;28;819;-79
2022/03/23 00:20:21;;;;;;;;;;;21.50;27.70;;;;;;694618;28;1230;-78
2022/03/23 00:20:42;;;;;;;;;;;21.50;28.60;;;;;;696514;28;1230;-79
2022/03/23 00:21:02;;;;;;;;;;;21.50;27.90;;;;;;695999;28;865;-80
2022/03/23 00:21:23;;;;;;;;;;;21.50;27.80;;;;;;696097;28;1057;-79
2022/03/23 00:21:43;;;;;;;;;;;21.50;28.60;;;;;;697171;28;1256;-79
2022/03/23 00:22:04;;;;;;;;;;;21.50;27.70;;;;;;698579;28;886;-80
2022/03/23 00:22:27;;;;;;;;;;;21.50;28.10;;;;;;698186;28;854;-81
2022/03/23 00:22:48;;;;;;;;;;;21.50;27.70;;;;;;695216;28;811;-80
2022/03/23 00:23:09;;;;;;;;;;;20.20;27.80;;;;;;694192;28;997;-78
2022/03/23 00:23:30;;;;;;;;;;;21.50;27.80;;;;;;694204;28;814;-78
2022/03/23 00:23:50;;;;;;;;;;;21.60;27.50;;;;;;694229;28;842;-78
2022/03/23 00:24:11;;;;;;;;;;;21.50;27.80;;;;;;694223;28;858;-77
2022/03/23 00:24:32;;;;;;;;;;;21.50;27.40;;;;;;693987;28;1231;-78
2022/03/23 00:24:55;;;;;;;;;;;21.50;27.30;;;;;;694168;28;1215;-79
2022/03/23 00:25:15;;;;;;;;;;;21.50;27.50;;;;;;694246;28;1321;-79
2022/03/23 00:25:36;;;;;;;;;;;21.60;27.70;;;;;;694268;28;814;-78
2022/03/23 00:25:59;;;;;;;;;;;21.50;27.70;;;;;;694113;28;878;-78
2022/03/23 00:26:20;;;;;;;;;;;21.50;27.90;;;;;;694118;28;1317;-80
2022/03/23 00:26:40;;;;;;;;;;;21.50;27.40;;;;;;696515;28;1619;-80
2022/03/23 00:27:01;;;;;;;;;;;21.60;27.60;;;;;;696660;28;1214;-79
2022/03/23 00:27:22;;;;;;;;;;;21.50;27.40;;;;;;695208;28;1280;-78
2022/03/23 00:27:43;;;;;;;;;;;21.60;27.90;;;;;;696649;28;874;-79
2022/03/23 00:28:04;;;;;;;;;;;21.60;28.30;;;;;;693909;28;898;-79
2022/03/23 00:28:26;;;;;;;;;;;21.50;27.80;;;;;;691558;28;1401;-79
2022/03/23 00:28:48;;;;;;;;;;;21.50;27.50;;;;;;694132;28;933;-80
2022/03/23 00:29:09;;;;;;;;;;;21.50;28.40;;;;;;692666;28;1421;-79
2022/03/23 00:29:29;;;;;;;;;;;21.60;27.50;;;;;;691347;28;1345;-77
2022/03/23 00:29:50;;;;;;;;;;;21.50;28.10;;;;;;692396;28;1214;-79
2022/03/23 00:30:11;;;;;;;;;;;21.60;28.10;;;;;;693729;28;1269;-78
2022/03/23 00:30:32;;;;;;;;;;;21.50;27.40;;;;;;693123;28;1232;-80
2022/03/23 00:30:53;;;;;;;;;;;21.60;27.60;;;;;;694054;28;838;-79
2022/03/23 00:31:14;;;;;;;;;;;21.50;28.30;;;;;;693384;28;1266;-81
2022/03/23 00:31:35;;;;;;;;;;;21.50;28.20;;;;;;691263;28;941;-80
2022/03/23 00:31:56;;;;;;;;;;;21.50;27.40;;;;;;691185;28;827;-79
2022/03/23 00:32:16;;;;;;;;;;;21.60;27.30;;;;;;691363;28;850;-80
2022/03/23 00:32:37;;;;;;;;;;;21.50;28.10;;;;;;691495;28;882;-80
2022/03/23 00:32:58;;;;;;;;;;;21.60;28.00;;;;;;691381;28;787;-80
2022/03/23 00:33:21;;;;;;;;;;;21.60;27.80;;;;;;691384;28;1456;-79
2022/03/23 00:33:41;;;;;;;;;;;21.60;27.50;;;;;;691486;28;905;-80
2022/03/23 00:34:02;;;;;;;;;;;21.50;27.50;;;;;;691138;28;1962;-81
2022/03/23 00:34:23;;;;;;;;;;;21.50;27.50;;;;;;691187;28;1224;-81
2022/03/23 00:34:43;;;;;;;;;;;21.50;27.20;;;;;;691084;28;1224;-80
2022/03/23 00:35:04;;;;;;;;;;;21.50;27.50;;;;;;689077;28;1281;-80
2022/03/23 00:35:25;;;;;;;;;;;21.50;27.70;;;;;;691298;28;811;-81
2022/03/23 00:35:45;;;;;;;;;;;21.50;27.80;;;;;;692655;28;1389;-82
2022/03/23 00:36:07;;;;;;;;;;;21.60;27.50;;;;;;691217;28;798;-81
2022/03/23 00:36:28;;;;;;;;;;;21.60;27.30;;;;;;691182;28;775;-79
2022/03/23 00:36:48;;;;;;;;;;;21.60;28.00;;;;;;691316;28;862;-80
2022/03/23 00:37:09;;;;;;;;;;;21.60;27.50;;;;;;691401;28;880;-80
2022/03/23 00:37:30;;;;;;;;;;;21.50;27.30;;;;;;691225;28;854;-80
2022/03/23 00:37:50;;;;;;;;;;;21.50;27.20;;;;;;691227;28;838;-81
2022/03/23 00:38:11;;;;;;;;;;;21.50;27.80;;;;;;691143;28;958;-81
2022/03/23 00:38:32;;;;;;;;;;;21.50;27.40;;;;;;691184;28;795;-80
2022/03/23 00:38:53;;;;;;;;;;;21.50;27.90;;;;;;691356;28;846;-80
2022/03/23 00:39:14;;;;;;;;;;;19.40;26.60;;;;;;693471;28;815;-80
2022/03/23 00:39:34;;;;;;;;;;;21.50;27.40;;;;;;694115;28;850;-80
2022/03/23 00:39:55;;;;;;;;;;;21.50;27.30;;;;;;694177;28;839;-81
2022/03/23 00:40:16;;;;;;;;;;;19.30;26.50;;;;;;691190;28;1396;-81
2022/03/23 00:40:38;;;;;;;;;;;21.50;27.30;;;;;;690569;28;1258;-80
2022/03/23 00:40:59;;;;;;;;;;;21.50;27.20;;;;;;691149;28;871;-80
2022/03/23 00:41:20;;;;;;;;;;;21.50;27.20;;;;;;691319;28;866;-79
2022/03/23 00:41:40;;;;;;;;;;;21.50;27.10;;;;;;691022;28;1353;-80
2022/03/23 00:42:01;;;;;;;;;;;21.50;26.90;;;;;;691677;28;922;-81
2022/03/23 00:42:22;;;;;;;;;;;21.40;27.00;;;;;;694030;28;859;-80
2022/03/23 00:42:43;;;;;;;;;;;21.50;27.60;;;;;;694122;28;925;-81
2022/03/23 00:43:03;;;;;;;;;;;21.40;27.70;;;;;;694062;28;854;-80
2022/03/23 00:43:24;;;;;;;;;;;21.40;26.80;;;;;;694152;28;854;-80
2022/03/23 00:43:45;;;;;;;;;;;19.30;26.60;;;;;;694131;28;866;-80
2022/03/23 00:44:06;;;;;;;;;;;21.40;27.00;;;;;;694121;28;893;-79
2022/03/23 00:44:26;;;;;;;;;;;21.40;26.80;;;;;;693985;28;795;-80
2022/03/23 00:44:47;;;;;;;;;;;21.40;26.80;;;;;;694200;28;839;-80
2022/03/23 00:45:08;;;;;;;;;;;21.40;27.50;;;;;;694005;28;867;-80
2022/03/23 00:45:29;;;;;;;;;;;21.40;26.80;;;;;;694072;28;834;-80
2022/03/23 00:45:49;;;;;;;;;;;21.40;26.80;;;;;;691218;28;883;-80
2022/03/23 00:46:10;;;;;;;;;;;21.40;26.80;;;;;;691198;28;866;-79
2022/03/23 00:46:31;;;;;;;;;;;21.40;26.60;;;;;;688292;28;1239;-79
2022/03/23 00:46:51;;;;;;;;;;;21.40;26.60;;;;;;688659;28;889;-79
2022/03/23 00:47:12;;;;;;;;;;;21.40;26.60;;;;;;690185;28;840;-79
2022/03/23 00:47:33;;;;;;;;;;;21.40;27.30;;;;;;691380;28;811;-81
2022/03/23 00:47:53;;;;;;;;;;;21.40;26.90;;;;;;694020;28;802;-80
2022/03/23 00:48:14;;;;;;;;;;;21.40;26.80;;;;;;692485;28;1231;-81
2022/03/23 00:48:34;;;;;;;;;;;21.40;27.50;;;;;;694104;28;830;-79
2022/03/23 00:48:55;;;;;;;;;;;21.40;26.90;;;;;;694117;28;882;-80
2022/03/23 00:49:15;;;;;;;;;;;21.40;26.50;;;;;;694079;28;982;-80
2022/03/23 00:49:37;;;;;;;;;;;21.40;26.70;;;;;;694108;28;906;-80
2022/03/23 00:49:58;;;;;;;;;;;21.40;26.70;;;;;;694065;28;910;-81
2022/03/23 00:50:18;;;;;;;;;;;21.40;27.30;;;;;;694150;28;866;-80
2022/03/23 00:50:39;;;;;;;;;;;21.30;28.40;;;;;;694143;28;827;-80
2022/03/23 00:51:00;;;;;;;;;;;21.40;27.00;;;;;;694114;28;811;-83
2022/03/23 00:51:20;;;;;;;;;;;21.30;26.90;;;;;;693791;28;1303;-81
2022/03/23 00:51:42;;;;;;;;;;;21.40;26.90;;;;;;693880;28;810;-79
2022/03/23 00:52:05;;;;;;;;;;;21.40;27.00;;;;;;693885;28;914;-80
2022/03/23 00:52:26;;;;;;;;;;;21.30;26.80;;;;;;693862;28;811;-80
2022/03/23 00:52:47;;;;;;;;;;;21.30;27.00;;;;;;693713;28;898;-80
2022/03/23 00:53:08;;;;;;;;;;;21.30;26.70;;;;;;694497;28;851;-81
2022/03/23 00:53:29;;;;;;;;;;;21.30;26.70;;;;;;696637;28;822;-80
2022/03/23 00:53:49;;;;;;;;;;;21.30;26.50;;;;;;696738;28;1890;-79
2022/03/23 00:54:10;;;;;;;;;;;21.30;26.60;;;;;;696485;28;882;-79
2022/03/23 00:54:31;;;;;;;;;;;21.30;26.80;;;;;;696115;28;948;-79
2022/03/23 00:54:52;;;;;;;;;;;21.30;26.50;;;;;;694072;28;850;-78
2022/03/23 00:55:13;;;;;;;;;;;21.30;26.70;;;;;;693853;28;925;-79
2022/03/23 00:55:34;;;;;;;;;;;21.30;26.60;;;;;;693771;28;846;-78
2022/03/23 00:55:54;;;;;;;;;;;21.30;26.80;;;;;;696778;28;917;-80
2022/03/23 00:56:16;;;;;;;;;;;21.30;26.70;;;;;;696764;28;862;-80
2022/03/23 00:56:37;;;;;;;;;;;21.30;26.90;;;;;;696543;28;818;-79
2022/03/23 00:56:58;;;;;;;;;;;21.30;26.80;;;;;;696574;28;901;-79
2022/03/23 00:57:18;;;;;;;;;;;21.30;27.20;;;;;;696761;28;869;-79
2022/03/23 00:57:39;;;;;;;;;;;21.30;26.60;;;;;;696118;28;876;-79
2022/03/23 00:58:00;;;;;;;;;;;21.30;26.60;;;;;;693734;28;1364;-79
2022/03/23 00:58:21;;;;;;;;;;;21.30;26.60;;;;;;689493;28;1428;-80
2022/03/23 00:58:42;;;;;;;;;;;21.30;26.40;;;;;;688467;28;775;-80
2022/03/23 00:59:03;;;;;;;;;;;21.30;26.40;;;;;;688454;28;944;-79
2022/03/23 00:59:24;;;;;;;;;;;21.30;26.60;;;;;;688500;28;838;-79
2022/03/23 00:59:45;;;;;;;;;;;20.30;26.20;;;;;;688927;28;791;-80
2022/03/23 01:00:09;;;;;;;;;;;21.30;26.70;;;;;;691163;28;917;-78
2022/03/23 01:00:30;;;;;;;;;;;21.30;26.40;;;;;;691231;28;838;-79
2022/03/23 01:00:50;;;;;;;;;;;21.30;26.40;;;;;;691467;28;929;-80
2022/03/23 01:01:13;;;;;;;;;;;21.30;26.40;;;;;;692969;28;903;-79
2022/03/23 01:01:34;;;;;;;;;;;21.30;26.40;;;;;;693806;28;1355;-79
2022/03/23 01:01:55;;;;;;;;;;;21.30;26.40;;;;;;693726;28;887;-80
2022/03/23 01:02:16;;;;;;;;;;;21.30;26.50;;;;;;691113;28;1184;-79
2022/03/23 01:02:36;;;;;;;;;;;21.30;26.40;;;;;;691188;28;843;-78
2022/03/23 01:02:57;;;;;;;;;;;21.30;26.50;;;;;;691105;28;924;-79
2022/03/23 01:03:18;;;;;;;;;;;21.30;26.50;;;;;;691187;28;792;-80
2022/03/23 01:03:38;;;;;;;;;;;21.30;26.40;;;;;;691064;28;878;-80
2022/03/23 01:03:59;;;;;;;;;;;21.30;26.40;;;;;;691241;28;908;-79
2022/03/23 01:04:20;;;;;;;;;;;21.30;26.50;;;;;;694169;28;886;-79
2022/03/23 01:04:41;;;;;;;;;;;21.30;26.30;;;;;;693771;28;2003;-79
2022/03/23 01:05:02;;;;;;;;;;;21.20;26.30;;;;;;694002;28;819;-79
2022/03/23 01:05:22;;;;;;;;;;;21.70;26.80;;;;;;694166;28;827;-78
2022/03/23 01:05:43;;;;;;;;;;;21.30;26.40;;;;;;694105;28;846;-79
2022/03/23 01:06:04;;;;;;;;;;;21.30;26.40;;;;;;694017;28;918;-77
2022/03/23 01:06:24;;;;;;;;;;;21.30;27.00;;;;;;694096;28;819;-79
2022/03/23 01:06:45;;;;;;;;;;;21.30;26.40;;;;;;694162;28;906;-79
2022/03/23 01:07:06;;;;;;;;;;;21.30;26.40;;;;;;693991;28;965;-79
2022/03/23 01:07:27;;;;;;;;;;;21.30;26.30;;;;;;694018;28;878;-79
2022/03/23 01:07:47;;;;;;;;;;;21.30;26.40;;;;;;694128;28;803;-80
2022/03/23 01:08:08;;;;;;;;;;;21.30;26.80;;;;;;693977;28;795;-80
2022/03/23 01:08:29;;;;;;;;;;;21.30;26.60;;;;;;693894;28;1483;-79
2022/03/23 01:08:49;;;;;;;;;;;21.30;26.30;;;;;;693660;28;1226;-79
2022/03/23 01:09:10;;;;;;;;;;;23.90;28.00;;;;;;694011;28;857;-79
2022/03/23 01:09:31;;;;;;;;;;;21.30;26.40;;;;;;694061;28;802;-79
2022/03/23 01:09:51;;;;;;;;;;;21.20;27.00;;;;;;694119;28;838;-80
2022/03/23 01:10:13;;;;;;;;;;;21.00;26.30;;;;;;693992;28;841;-79
2022/03/23 01:10:34;;;;;;;;;;;21.20;26.40;;;;;;693991;28;842;-79
2022/03/23 01:10:55;;;;;;;;;;;21.20;26.80;;;;;;694052;28;835;-80
2022/03/23 01:11:15;;;;;;;;;;;21.30;26.50;;;;;;694164;28;866;-80
2022/03/23 01:11:37;;;;;;;;;;;21.20;26.30;;;;;;694019;28;861;-79
2022/03/23 01:11:57;;;;;;;;;;;21.20;26.30;;;;;;694035;28;874;-80
2022/03/23 01:12:18;;;;;;;;;;;21.20;26.40;;;;;;694137;28;803;-78
2022/03/23 01:12:39;;;;;;;;;;;21.20;26.50;;;;;;694018;28;941;-78
2022/03/23 01:13:00;;;;;;;;;;;21.20;26.30;;;;;;694028;28;905;-79
2022/03/23 01:13:21;;;;;;;;;;;21.20;26.30;;;;;;694154;28;859;-78
2022/03/23 01:13:42;;;;;;;;;;;21.20;26.80;;;;;;694046;28;803;-79
2022/03/23 01:14:03;;;;;;;;;;;21.20;27.20;;;;;;694017;28;1902;-79
2022/03/23 01:14:25;;;;;;;;;;;21.20;26.30;;;;;;694085;28;823;-79
2022/03/23 01:14:46;;;;;;;;;;;21.20;26.30;;;;;;694116;28;811;-79
2022/03/23 01:15:09;;;;;;;;;;;21.20;27.00;;;;;;694065;28;815;-79
2022/03/23 01:15:30;;;;;;;;;;;21.20;26.30;;;;;;693987;28;814;-79
2022/03/23 01:15:50;;;;;;;;;;;21.20;26.40;;;;;;694126;28;834;-79
2022/03/23 01:16:12;;;;;;;;;;;21.20;26.30;;;;;;694027;28;961;-80
2022/03/23 01:16:32;;;;;;;;;;;21.20;26.30;;;;;;693947;28;827;-79
2022/03/23 01:16:53;;;;;;;;;;;21.20;26.30;;;;;;694132;28;885;-79
2022/03/23 01:17:14;;;;;;;;;;;21.20;26.30;;;;;;694004;28;799;-79
2022/03/23 01:17:35;;;;;;;;;;;21.20;26.30;;;;;;694063;28;878;-79
2022/03/23 01:17:56;;;;;;;;;;;21.20;27.00;;;;;;694013;28;901;-79
2022/03/23 01:18:17;;;;;;;;;;;21.20;26.60;;;;;;694113;28;874;-80
2022/03/23 01:18:37;;;;;;;;;;;21.20;26.30;;;;;;693951;28;867;-79
2022/03/23 01:18:58;;;;;;;;;;;21.20;26.30;;;;;;694006;28;851;-79
2022/03/23 01:19:22;;;;;;;;;;;21.20;26.30;;;;;;694167;28;858;-80
2022/03/23 01:19:43;;;;;;;;;;;21.20;26.30;;;;;;693983;28;894;-79
2022/03/23 01:20:04;;;;;;;;;;;21.20;26.30;;;;;;694083;28;850;-78
2022/03/23 01:20:25;;;;;;;;;;;21.20;26.30;;;;;;693993;28;1065;-79
2022/03/23 01:20:46;;;;;;;;;;;21.20;26.30;;;;;;694027;28;902;-80
2022/03/23 01:21:06;;;;;;;;;;;21.20;26.30;;;;;;694062;28;826;-80
2022/03/23 01:21:28;;;;;;;;;;;21.20;26.30;;;;;;694054;28;850;-80
2022/03/23 01:21:49;;;;;;;;;;;21.20;26.30;;;;;;694086;28;889;-79
2022/03/23 01:22:10;;;;;;;;;;;22.70;27.60;;;;;;693994;28;876;-79
2022/03/23 01:22:30;;;;;;;;;;;21.20;26.40;;;;;;694001;28;909;-79
2022/03/23 01:22:51;;;;;;;;;;;21.20;26.30;;;;;;694079;28;813;-79
2022/03/23 01:23:12;;;;;;;;;;;21.20;27.20;;;;;;693451;28;1286;-79
2022/03/23 01:23:32;;;;;;;;;;;21.20;26.40;;;;;;691286;28;779;-80
2022/03/23 01:23:53;;;;;;;;;;;21.20;26.30;;;;;;691340;28;831;-79
2022/03/23 01:24:14;;;;;;;;;;;21.20;26.30;;;;;;693354;28;986;-79
2022/03/23 01:24:35;;;;;;;;;;;21.10;26.50;;;;;;694024;28;814;-80
2022/03/23 01:24:55;;;;;;;;;;;21.20;26.50;;;;;;693941;28;728;-80
2022/03/23 01:25:16;;;;;;;;;;;21.20;26.60;;;;;;694082;28;925;-79
2022/03/23 01:25:37;;;;;;;;;;;21.20;26.30;;;;;;694105;28;762;-79
2022/03/23 01:25:57;;;;;;;;;;;21.10;26.30;;;;;;694063;28;566;-79
2022/03/23 01:26:18;;;;;;;;;;;21.10;26.20;;;;;;694136;28;810;-79
2022/03/23 01:26:38;;;;;;;;;;;21.10;26.20;;;;;;693935;28;894;-80
2022/03/23 01:27:00;;;;;;;;;;;21.10;26.20;;;;;;694014;28;876;-78
2022/03/23 01:27:21;;;;;;;;;;;21.20;26.30;;;;;;694073;28;866;-79
2022/03/23 01:27:43;;;;;;;;;;;21.10;26.20;;;;;;693977;28;822;-79
2022/03/23 01:28:05;;;;;;;;;;;21.10;26.30;;;;;;693976;28;862;-79
2022/03/23 01:28:25;;;;;;;;;;;21.10;26.20;;;;;;693998;28;841;-78
2022/03/23 01:28:47;;;;;;;;;;;21.10;26.30;;;;;;694075;28;903;-79
2022/03/23 01:29:08;;;;;;;;;;;21.20;26.30;;;;;;693918;28;790;-80
2022/03/23 01:29:29;;;;;;;;;;;21.20;26.50;;;;;;694047;28;966;-79
2022/03/23 01:29:49;;;;;;;;;;;21.20;26.30;;;;;;694015;28;944;-78
2022/03/23 01:30:14;;;;;;;;;;;21.10;26.40;;;;;;693899;28;874;-78
2022/03/23 01:30:34;;;;;;;;;;;21.10;26.20;;;;;;694031;28;818;-78
2022/03/23 01:30:55;;;;;;;;;;;21.10;26.30;;;;;;693946;28;798;-78
2022/03/23 01:31:16;;;;;;;;;;;21.30;27.00;;;;;;694049;28;958;-78
2022/03/23 01:31:36;;;;;;;;;;;21.10;26.40;;;;;;693723;28;1269;-78
2022/03/23 01:31:57;;;;;;;;;;;21.10;26.30;;;;;;693916;28;1552;-79
2022/03/23 01:32:18;;;;;;;;;;;21.10;26.20;;;;;;694152;28;890;-79
2022/03/23 01:32:39;;;;;;;;;;;21.10;27.00;;;;;;693999;28;821;-79
2022/03/23 01:33:00;;;;;;;;;;;21.10;26.30;;;;;;693977;28;814;-78
2022/03/23 01:33:22;;;;;;;;;;;21.10;26.40;;;;;;694013;28;830;-79
2022/03/23 01:33:43;;;;;;;;;;;21.10;26.30;;;;;;694089;28;842;-79
2022/03/23 01:34:03;;;;;;;;;;;21.10;26.30;;;;;;693786;28;1894;-79
2022/03/23 01:34:24;;;;;;;;;;;21.10;26.20;;;;;;694156;28;869;-78
2022/03/23 01:34:44;;;;;;;;;;;21.10;26.30;;;;;;693982;28;819;-79
2022/03/23 01:35:07;;;;;;;;;;;21.10;27.10;;;;;;693906;28;952;-79
2022/03/23 01:35:27;;;;;;;;;;;21.10;27.30;;;;;;691191;28;918;-78
2022/03/23 01:35:48;;;;;;;;;;;21.10;26.70;;;;;;691358;28;823;-78
2022/03/23 01:36:09;;;;;;;;;;;21.10;27.00;;;;;;691285;28;790;-79
2022/03/23 01:36:30;;;;;;;;;;;21.10;26.40;;;;;;691279;28;814;-78
2022/03/23 01:36:50;;;;;;;;;;;21.10;26.30;;;;;;692681;28;1231;-78
2022/03/23 01:37:11;;;;;;;;;;;21.10;26.80;;;;;;693976;28;877;-78
2022/03/23 01:37:38;;;;;;;;;;;21.10;26.30;;;;;;693976;28;782;-77
2022/03/23 01:37:59;;;;;;;;;;;21.10;26.70;;;;;;692295;28;1238;-80
2022/03/23 01:38:19;;;;;;;;;;;21.10;27.00;;;;;;694045;28;893;-80
2022/03/23 01:38:40;;;;;;;;;;;21.10;26.70;;;;;;694068;28;920;-79
2022/03/23 01:39:01;;;;;;;;;;;21.10;26.30;;;;;;694034;28;810;-79
2022/03/23 01:39:21;;;;;;;;;;;21.10;27.00;;;;;;694067;28;874;-80
2022/03/23 01:39:42;;;;;;;;;;;21.10;27.00;;;;;;693993;28;920;-78
2022/03/23 01:40:03;;;;;;;;;;;21.10;26.40;;;;;;693972;28;826;-78
2022/03/23 01:40:24;;;;;;;;;;;21.10;26.20;;;;;;694093;28;894;-77
2022/03/23 01:40:46;;;;;;;;;;;21.10;26.50;;;;;;693780;28;1099;-78
2022/03/23 01:41:06;;;;;;;;;;;21.10;26.30;;;;;;693735;28;858;-78
2022/03/23 01:41:27;;;;;;;;;;;21.10;26.90;;;;;;693815;28;1056;-77
2022/03/23 01:41:47;;;;;;;;;;;21.10;26.60;;;;;;693942;28;810;-84
2022/03/23 01:42:08;;;;;;;;;;;21.10;27.00;;;;;;693678;28;807;-78
2022/03/23 01:42:29;;;;;;;;;;;21.10;26.90;;;;;;693794;28;900;-77
2022/03/23 01:42:50;;;;;;;;;;;21.10;26.30;;;;;;694091;28;827;-77
2022/03/23 01:43:11;;;;;;;;;;;21.10;26.50;;;;;;693921;28;846;-77
2022/03/23 01:43:33;;;;;;;;;;;21.10;26.20;;;;;;694034;28;921;-77
2022/03/23 01:43:54;;;;;;;;;;;21.10;26.50;;;;;;694056;28;834;-77
2022/03/23 01:44:15;;;;;;;;;;;21.10;26.20;;;;;;694088;28;890;-78
2022/03/23 01:44:36;;;;;;;;;;;21.10;26.20;;;;;;694055;28;819;-82
2022/03/23 01:44:57;;;;;;;;;;;21.10;26.80;;;;;;693983;28;909;-82
2022/03/23 01:45:19;;;;;;;;;;;21.10;28.10;;;;;;694053;28;862;-83
2022/03/23 01:45:39;;;;;;;;;;;21.10;26.50;;;;;;696509;28;1379;-80
2022/03/23 01:46:00;;;;;;;;;;;21.10;26.60;;;;;;696479;28;770;-84
2022/03/23 01:46:21;;;;;;;;;;;21.10;26.60;;;;;;693806;28;1357;-81
2022/03/23 01:47:00;;;;;;;;;;;21.10;26.50;;;;;;691114;28;1119;-85
2022/03/23 01:47:20;;;;;;;;;;;21.10;26.30;;;;;;691236;28;1219;-83
2022/03/23 01:47:41;;;;;;;;;;;21.10;27.00;;;;;;691468;28;811;-82
2022/03/23 01:48:02;;;;;;;;;;;21.10;26.50;;;;;;693297;28;846;-83
2022/03/23 01:48:22;;;;;;;;;;;21.10;27.40;;;;;;696215;28;1523;-82
2022/03/23 01:48:44;;;;;;;;;;;21.10;27.50;;;;;;695769;28;936;-82
2022/03/23 01:49:04;;;;;;;;;;;21.10;26.80;;;;;;693847;28;1300;-82
2022/03/23 01:49:25;;;;;;;;;;;21.10;27.10;;;;;;696503;28;1135;-82
2022/03/23 01:49:47;;;;;;;;;;;21.10;27.20;;;;;;696745;28;893;-83
2022/03/23 01:50:08;;;;;;;;;;;21.10;27.00;;;;;;697048;28;885;-85
2022/03/23 01:50:29;;;;;;;;;;;21.10;27.00;;;;;;696774;28;1012;-83
2022/03/23 01:50:50;;;;;;;;;;;21.00;27.20;;;;;;696846;28;993;-83
2022/03/23 01:51:11;;;;;;;;;;;21.10;27.60;;;;;;696978;28;996;-82
2022/03/23 01:51:31;;;;;;;;;;;21.00;27.30;;;;;;696078;28;1099;-81
2022/03/23 01:51:52;;;;;;;;;;;21.10;27.60;;;;;;692852;28;1366;-79
2022/03/23 01:52:14;;;;;;;;;;;21.10;28.00;;;;;;689696;28;1280;-79
2022/03/23 01:52:35;;;;;;;;;;;21.10;27.50;;;;;;688946;28;954;-81
2022/03/23 01:52:55;;;;;;;;;;;21.10;27.80;;;;;;689447;28;800;-83
2022/03/23 01:53:16;;;;;;;;;;;21.10;27.90;;;;;;691514;28;1017;-82
2022/03/23 01:53:37;;;;;;;;;;;21.10;27.70;;;;;;693266;28;1238;-80
2022/03/23 01:53:57;;;;;;;;;;;21.00;27.50;;;;;;695768;28;1965;-84
2022/03/23 01:54:18;;;;;;;;;;;21.10;27.80;;;;;;698585;28;795;-81
2022/03/23 01:54:40;;;;;;;;;;;21.10;28.00;;;;;;698123;28;988;-80
2022/03/23 01:55:13;;;;;;;;;;;21.10;27.50;;;;;;695427;28;1207;-81
2022/03/23 01:55:33;;;;;;;;;;;21.00;27.40;;;;;;692603;28;1373;-82
2022/03/23 01:55:54;;;;;;;;;;;21.10;28.10;;;;;;691432;28;1072;-80
2022/03/23 01:56:15;;;;;;;;;;;21.00;27.60;;;;;;691209;28;1369;-82
2022/03/23 01:56:35;;;;;;;;;;;21.00;27.70;;;;;;691037;28;811;-80
2022/03/23 01:56:57;;;;;;;;;;;21.00;28.10;;;;;;693033;28;877;-80
2022/03/23 01:57:18;;;;;;;;;;;21.10;28.10;;;;;;691457;28;1274;-81
2022/03/23 01:57:40;;;;;;;;;;;21.10;27.70;;;;;;693747;28;913;-81
2022/03/23 01:58:01;;;;;;;;;;;21.10;27.60;;;;;;693696;28;890;-81
2022/03/23 01:58:21;;;;;;;;;;;21.00;27.70;;;;;;693805;28;941;-81
2022/03/23 01:58:42;;;;;;;;;;;21.10;27.50;;;;;;693744;28;945;-81
2022/03/23 01:59:03;;;;;;;;;;;21.10;27.60;;;;;;691493;28;826;-81
2022/03/23 01:59:23;;;;;;;;;;;21.10;28.00;;;;;;693802;28;890;-81
2022/03/23 01:59:44;;;;;;;;;;;21.00;28.00;;;;;;690935;28;1343;-81
2022/03/23 02:00:06;;;;;;;;;;;21.10;27.50;;;;;;691002;28;853;-81
2022/03/23 02:00:28;;;;;;;;;;;21.10;27.80;;;;;;690896;28;960;-81
2022/03/23 02:00:48;;;;;;;;;;;21.00;27.80;;;;;;691755;28;897;-81
2022/03/23 02:01:09;;;;;;;;;;;21.00;27.90;;;;;;693702;28;919;-81
2022/03/23 02:01:29;;;;;;;;;;;21.00;27.50;;;;;;693785;28;818;-81
2022/03/23 02:01:51;;;;;;;;;;;21.00;27.50;;;;;;694046;28;830;-81
2022/03/23 02:02:11;;;;;;;;;;;21.00;27.70;;;;;;693991;28;956;-81
2022/03/23 02:02:32;;;;;;;;;;;21.00;27.60;;;;;;693830;28;878;-80
2022/03/23 02:02:52;;;;;;;;;;;21.00;27.40;;;;;;694170;28;914;-81
2022/03/23 02:03:13;;;;;;;;;;;21.00;27.50;;;;;;693924;28;768;-83
2022/03/23 02:03:34;;;;;;;;;;;21.00;29.10;;;;;;693932;28;795;-79
2022/03/23 02:03:54;;;;;;;;;;;21.00;27.50;;;;;;694061;28;807;-81
2022/03/23 02:04:15;;;;;;;;;;;22.50;28.10;;;;;;693943;28;1099;-80
2022/03/23 02:04:36;;;;;;;;;;;21.00;27.90;;;;;;693767;28;1359;-80
2022/03/23 02:04:57;;;;;;;;;;;21.00;27.60;;;;;;693960;28;847;-80
2022/03/23 02:05:18;;;;;;;;;;;21.00;27.60;;;;;;694576;28;843;-80
2022/03/23 02:05:38;;;;;;;;;;;21.00;27.40;;;;;;694474;28;862;-80
2022/03/23 02:05:59;;;;;;;;;;;21.00;27.40;;;;;;694475;28;858;-80
2022/03/23 02:06:19;;;;;;;;;;;21.00;27.40;;;;;;694558;28;873;-80
2022/03/23 02:06:40;;;;;;;;;;;21.00;27.80;;;;;;694209;28;1191;-80
2022/03/23 02:07:01;;;;;;;;;;;21.00;27.40;;;;;;694244;28;966;-80
2022/03/23 02:07:22;;;;;;;;;;;21.00;27.70;;;;;;691583;28;1387;-80
2022/03/23 02:07:43;;;;;;;;;;;21.00;28.30;;;;;;691553;28;830;-80